sensor_id;sensor_type;location;lat;lon;timestamp;P1;durP1;ratioP1;P2;durP2;ratioP2
27999;SDS011;15328;50.860;10.562;2023-02-15T00:02:19;6.18;;;3.00;;
27999;SDS011;15328;50.860;10.562;2023-02-15T00:07:20;4.90;;;3.20;;
27999;SDS011;15328;50.860;10.562;2023-02-15T00:12:20;6.03;;;3.58;;
27999;SDS011;15328;50.860;10.562;2023-02-15T00:17:21;7.10;;;3.22;;
27999;SDS011;15328;50.860;10.562;2023-02-15T00:22:21;6.25;;;3.00;;
27999;SDS011;15328;50.860;10.562;2023-02-15T00:27:22;4.47;;;2.95;;
27999;SDS011;15328;50.860;10.562;2023-02-15T00:32:22;4.90;;;2.85;;
27999;SDS011;15328;50.860;10.562;2023-02-15T00:37:22;18.70;;;9.30;;
27999;SDS011;15328;50.860;10.562;2023-02-15T00:42:23;25.52;;;14.25;;
27999;SDS011;15328;50.860;10.562;2023-02-15T00:47:23;18.63;;;11.30;;
27999;SDS011;15328;50.860;10.562;2023-02-15T00:52:25;17.10;;;10.13;;
27999;SDS011;15328;50.860;10.562;2023-02-15T00:57:25;20.57;;;11.40;;
27999;SDS011;15328;50.860;10.562;2023-02-15T01:02:25;19.60;;;11.10;;
27999;SDS011;15328;50.860;10.562;2023-02-15T01:07:26;17.02;;;9.95;;
27999;SDS011;15328;50.860;10.562;2023-02-15T01:12:26;16.08;;;10.05;;
27999;SDS011;15328;50.860;10.562;2023-02-15T01:17:26;15.88;;;9.02;;
27999;SDS011;15328;50.860;10.562;2023-02-15T01:22:27;11.65;;;6.38;;
27999;SDS011;15328;50.860;10.562;2023-02-15T01:27:27;7.50;;;4.60;;
27999;SDS011;15328;50.860;10.562;2023-02-15T01:32:30;6.68;;;3.90;;
27999;SDS011;15328;50.860;10.562;2023-02-15T01:37:31;8.02;;;4.55;;
27999;SDS011;15328;50.860;10.562;2023-02-15T01:42:33;6.10;;;3.60;;
27999;SDS011;15328;50.860;10.562;2023-02-15T01:47:35;6.72;;;4.07;;
27999;SDS011;15328;50.860;10.562;2023-02-15T01:52:43;6.47;;;4.18;;
27999;SDS011;15328;50.860;10.562;2023-02-15T01:57:50;7.38;;;4.15;;
27999;SDS011;15328;50.860;10.562;2023-02-15T02:08:14;6.68;;;3.95;;
27999;SDS011;15328;50.860;10.562;2023-02-15T02:13:14;8.18;;;4.65;;
27999;SDS011;15328;50.860;10.562;2023-02-15T02:23:36;8.90;;;4.68;;
27999;SDS011;15328;50.860;10.562;2023-02-15T02:44:23;5.97;;;3.90;;
27999;SDS011;15328;50.860;10.562;2023-02-15T02:54:34;5.25;;;3.20;;
27999;SDS011;15328;50.860;10.562;2023-02-15T02:59:37;5.13;;;3.28;;
27999;SDS011;15328;50.860;10.562;2023-02-15T03:04:43;7.30;;;3.63;;
27999;SDS011;15328;50.860;10.562;2023-02-15T03:09:49;4.97;;;3.03;;
27999;SDS011;15328;50.860;10.562;2023-02-15T03:14:53;4.10;;;2.90;;
27999;SDS011;15328;50.860;10.562;2023-02-15T03:19:58;5.20;;;3.13;;
27999;SDS011;15328;50.860;10.562;2023-02-15T03:25:46;6.30;;;2.63;;
27999;SDS011;15328;50.860;10.562;2023-02-15T03:30:47;5.60;;;2.97;;
27999;SDS011;15328;50.860;10.562;2023-02-15T03:35:53;4.97;;;2.97;;
27999;SDS011;15328;50.860;10.562;2023-02-15T03:41:05;4.55;;;2.80;;
27999;SDS011;15328;50.860;10.562;2023-02-15T03:46:23;4.78;;;2.85;;
27999;SDS011;15328;50.860;10.562;2023-02-15T03:51:36;3.95;;;2.42;;
27999;SDS011;15328;50.860;10.562;2023-02-15T03:56:41;4.55;;;2.42;;
27999;SDS011;15328;50.860;10.562;2023-02-15T04:02:11;4.20;;;1.95;;
27999;SDS011;15328;50.860;10.562;2023-02-15T04:07:20;4.65;;;2.42;;
27999;SDS011;15328;50.860;10.562;2023-02-15T04:12:20;5.10;;;2.53;;
27999;SDS011;15328;50.860;10.562;2023-02-15T04:17:20;4.13;;;2.10;;
27999;SDS011;15328;50.860;10.562;2023-02-15T04:22:21;3.63;;;2.15;;
27999;SDS011;15328;50.860;10.562;2023-02-15T04:27:44;3.30;;;1.90;;
27999;SDS011;15328;50.860;10.562;2023-02-15T04:32:46;3.40;;;1.70;;
27999;SDS011;15328;50.860;10.562;2023-02-15T04:37:47;3.35;;;1.63;;
27999;SDS011;15328;50.860;10.562;2023-02-15T04:42:48;4.05;;;2.10;;
27999;SDS011;15328;50.860;10.562;2023-02-15T04:47:49;4.25;;;2.10;;
27999;SDS011;15328;50.860;10.562;2023-02-15T04:52:51;4.78;;;2.67;;
27999;SDS011;15328;50.860;10.562;2023-02-15T04:57:51;4.80;;;2.63;;
27999;SDS011;15328;50.860;10.562;2023-02-15T05:02:51;4.32;;;2.22;;
27999;SDS011;15328;50.860;10.562;2023-02-15T05:07:52;4.20;;;2.30;;
27999;SDS011;15328;50.860;10.562;2023-02-15T05:12:52;3.30;;;2.03;;
27999;SDS011;15328;50.860;10.562;2023-02-15T05:17:53;3.50;;;2.15;;
27999;SDS011;15328;50.860;10.562;2023-02-15T05:22:53;5.07;;;2.55;;
27999;SDS011;15328;50.860;10.562;2023-02-15T05:27:54;4.78;;;2.75;;
27999;SDS011;15328;50.860;10.562;2023-02-15T05:33:13;5.65;;;3.15;;
27999;SDS011;15328;50.860;10.562;2023-02-15T05:38:14;11.43;;;6.97;;
27999;SDS011;15328;50.860;10.562;2023-02-15T05:43:14;14.38;;;9.55;;
27999;SDS011;15328;50.860;10.562;2023-02-15T05:48:15;13.68;;;8.80;;
27999;SDS011;15328;50.860;10.562;2023-02-15T05:53:16;7.38;;;4.82;;
27999;SDS011;15328;50.860;10.562;2023-02-15T05:58:16;4.38;;;2.80;;
27999;SDS011;15328;50.860;10.562;2023-02-15T06:03:16;3.83;;;2.37;;
27999;SDS011;15328;50.860;10.562;2023-02-15T06:08:17;4.43;;;2.20;;
27999;SDS011;15328;50.860;10.562;2023-02-15T06:13:18;3.50;;;2.20;;
27999;SDS011;15328;50.860;10.562;2023-02-15T06:18:18;3.35;;;1.95;;
27999;SDS011;15328;50.860;10.562;2023-02-15T06:23:18;3.85;;;2.33;;
27999;SDS011;15328;50.860;10.562;2023-02-15T06:28:19;4.18;;;2.53;;
27999;SDS011;15328;50.860;10.562;2023-02-15T06:33:19;4.30;;;1.88;;
27999;SDS011;15328;50.860;10.562;2023-02-15T06:38:19;4.05;;;2.22;;
27999;SDS011;15328;50.860;10.562;2023-02-15T06:43:20;5.37;;;2.83;;
27999;SDS011;15328;50.860;10.562;2023-02-15T06:48:20;8.77;;;5.05;;
27999;SDS011;15328;50.860;10.562;2023-02-15T06:53:20;4.87;;;3.23;;
27999;SDS011;15328;50.860;10.562;2023-02-15T06:58:21;4.30;;;2.55;;
27999;SDS011;15328;50.860;10.562;2023-02-15T07:03:21;5.15;;;3.08;;
27999;SDS011;15328;50.860;10.562;2023-02-15T07:08:22;4.57;;;2.87;;
27999;SDS011;15328;50.860;10.562;2023-02-15T07:13:22;3.30;;;2.03;;
27999;SDS011;15328;50.860;10.562;2023-02-15T07:18:23;3.17;;;2.05;;
27999;SDS011;15328;50.860;10.562;2023-02-15T07:23:23;3.83;;;2.45;;
27999;SDS011;15328;50.860;10.562;2023-02-15T07:28:25;3.67;;;1.92;;
27999;SDS011;15328;50.860;10.562;2023-02-15T07:33:26;3.28;;;2.20;;
27999;SDS011;15328;50.860;10.562;2023-02-15T07:38:29;4.38;;;2.45;;
27999;SDS011;15328;50.860;10.562;2023-02-15T07:43:32;2.88;;;2.00;;
27999;SDS011;15328;50.860;10.562;2023-02-15T07:48:35;3.83;;;2.83;;
27999;SDS011;15328;50.860;10.562;2023-02-15T07:53:37;4.25;;;2.63;;
27999;SDS011;15328;50.860;10.562;2023-02-15T07:58:38;3.17;;;2.08;;
27999;SDS011;15328;50.860;10.562;2023-02-15T08:03:51;3.10;;;2.17;;
27999;SDS011;15328;50.860;10.562;2023-02-15T08:08:52;3.50;;;2.15;;
27999;SDS011;15328;50.860;10.562;2023-02-15T08:24:10;3.80;;;2.20;;
27999;SDS011;15328;50.860;10.562;2023-02-15T08:29:12;2.85;;;2.03;;
27999;SDS011;15328;50.860;10.562;2023-02-15T08:34:14;2.28;;;1.77;;
27999;SDS011;15328;50.860;10.562;2023-02-15T08:39:16;2.03;;;1.60;;
27999;SDS011;15328;50.860;10.562;2023-02-15T08:44:18;2.07;;;1.57;;
27999;SDS011;15328;50.860;10.562;2023-02-15T08:49:20;2.42;;;1.60;;
27999;SDS011;15328;50.860;10.562;2023-02-15T08:54:21;2.88;;;1.63;;
27999;SDS011;15328;50.860;10.562;2023-02-15T08:59:22;2.42;;;1.63;;
27999;SDS011;15328;50.860;10.562;2023-02-15T09:04:24;2.67;;;1.90;;
27999;SDS011;15328;50.860;10.562;2023-02-15T09:09:24;3.23;;;2.10;;
27999;SDS011;15328;50.860;10.562;2023-02-15T09:14:25;3.23;;;2.03;;
27999;SDS011;15328;50.860;10.562;2023-02-15T09:19:26;3.13;;;2.13;;
27999;SDS011;15328;50.860;10.562;2023-02-15T09:24:26;3.13;;;1.85;;
27999;SDS011;15328;50.860;10.562;2023-02-15T09:29:27;4.05;;;2.38;;
27999;SDS011;15328;50.860;10.562;2023-02-15T09:34:27;2.72;;;2.00;;
27999;SDS011;15328;50.860;10.562;2023-02-15T09:39:27;3.80;;;2.35;;
27999;SDS011;15328;50.860;10.562;2023-02-15T09:49:55;3.35;;;2.40;;
27999;SDS011;15328;50.860;10.562;2023-02-15T09:55:36;3.17;;;2.10;;
27999;SDS011;15328;50.860;10.562;2023-02-15T10:00:58;2.30;;;1.70;;
27999;SDS011;15328;50.860;10.562;2023-02-15T10:11:12;3.10;;;1.85;;
27999;SDS011;15328;50.860;10.562;2023-02-15T10:27:51;2.58;;;1.90;;
27999;SDS011;15328;50.860;10.562;2023-02-15T10:43:08;2.58;;;1.90;;
27999;SDS011;15328;50.860;10.562;2023-02-15T10:58:49;2.70;;;2.50;;
27999;SDS011;15328;50.860;10.562;2023-02-15T11:10:01;5.60;;;3.00;;
27999;SDS011;15328;50.860;10.562;2023-02-15T11:15:03;4.10;;;2.70;;
27999;SDS011;15328;50.860;10.562;2023-02-15T11:20:17;3.78;;;2.50;;
27999;SDS011;15328;50.860;10.562;2023-02-15T11:25:33;4.85;;;3.10;;
27999;SDS011;15328;50.860;10.562;2023-02-15T11:30:42;5.32;;;3.08;;
27999;SDS011;15328;50.860;10.562;2023-02-15T11:35:50;3.78;;;2.75;;
27999;SDS011;15328;50.860;10.562;2023-02-15T11:41:05;3.83;;;2.00;;
27999;SDS011;15328;50.860;10.562;2023-02-15T11:46:11;2.83;;;1.90;;
27999;SDS011;15328;50.860;10.562;2023-02-15T11:51:17;2.42;;;1.80;;
27999;SDS011;15328;50.860;10.562;2023-02-15T11:56:23;3.00;;;1.80;;
27999;SDS011;15328;50.860;10.562;2023-02-15T12:06:29;4.28;;;1.95;;
27999;SDS011;15328;50.860;10.562;2023-02-15T12:11:37;4.45;;;1.85;;
27999;SDS011;15328;50.860;10.562;2023-02-15T12:16:43;1.92;;;1.40;;
27999;SDS011;15328;50.860;10.562;2023-02-15T12:21:48;2.33;;;1.50;;
27999;SDS011;15328;50.860;10.562;2023-02-15T12:27:03;2.20;;;1.27;;
27999;SDS011;15328;50.860;10.562;2023-02-15T12:32:08;1.77;;;1.45;;
27999;SDS011;15328;50.860;10.562;2023-02-15T12:37:17;1.30;;;1.13;;
27999;SDS011;15328;50.860;10.562;2023-02-15T12:42:21;2.42;;;1.50;;
27999;SDS011;15328;50.860;10.562;2023-02-15T12:47:23;2.40;;;1.70;;
27999;SDS011;15328;50.860;10.562;2023-02-15T12:52:26;2.63;;;2.08;;
27999;SDS011;15328;50.860;10.562;2023-02-15T12:57:28;3.67;;;2.30;;
27999;SDS011;15328;50.860;10.562;2023-02-15T13:02:42;3.80;;;2.42;;
27999;SDS011;15328;50.860;10.562;2023-02-15T13:07:47;4.10;;;2.75;;
27999;SDS011;15328;50.860;10.562;2023-02-15T13:12:51;4.85;;;3.22;;
27999;SDS011;15328;50.860;10.562;2023-02-15T13:17:55;6.05;;;3.33;;
27999;SDS011;15328;50.860;10.562;2023-02-15T13:22:58;5.15;;;3.13;;
27999;SDS011;15328;50.860;10.562;2023-02-15T13:28:04;5.50;;;3.53;;
27999;SDS011;15328;50.860;10.562;2023-02-15T13:33:06;4.75;;;3.30;;
27999;SDS011;15328;50.860;10.562;2023-02-15T13:43:33;5.07;;;3.38;;
27999;SDS011;15328;50.860;10.562;2023-02-15T14:05:21;5.25;;;3.80;;
27999;SDS011;15328;50.860;10.562;2023-02-15T14:21:41;5.88;;;3.67;;
27999;SDS011;15328;50.860;10.562;2023-02-15T14:26:59;6.00;;;4.57;;
27999;SDS011;15328;50.860;10.562;2023-02-15T14:32:10;6.25;;;3.92;;
27999;SDS011;15328;50.860;10.562;2023-02-15T14:37:16;7.53;;;4.25;;
27999;SDS011;15328;50.860;10.562;2023-02-15T14:42:25;6.25;;;4.50;;
27999;SDS011;15328;50.860;10.562;2023-02-15T14:47:35;5.90;;;4.30;;
27999;SDS011;15328;50.860;10.562;2023-02-15T14:53:14;6.57;;;4.30;;
27999;SDS011;15328;50.860;10.562;2023-02-15T14:58:16;8.15;;;4.55;;
27999;SDS011;15328;50.860;10.562;2023-02-15T15:03:23;6.97;;;4.33;;
27999;SDS011;15328;50.860;10.562;2023-02-15T15:13:38;7.35;;;4.72;;
27999;SDS011;15328;50.860;10.562;2023-02-15T15:18:43;7.80;;;4.28;;
27999;SDS011;15328;50.860;10.562;2023-02-15T15:23:43;6.68;;;4.28;;
27999;SDS011;15328;50.860;10.562;2023-02-15T15:33:49;6.35;;;4.20;;
27999;SDS011;15328;50.860;10.562;2023-02-15T15:44:42;7.22;;;4.80;;
27999;SDS011;15328;50.860;10.562;2023-02-15T15:50:13;6.95;;;4.28;;
27999;SDS011;15328;50.860;10.562;2023-02-15T15:55:20;10.73;;;5.32;;
27999;SDS011;15328;50.860;10.562;2023-02-15T16:00:25;7.60;;;4.60;;
27999;SDS011;15328;50.860;10.562;2023-02-15T16:05:39;8.25;;;5.00;;
27999;SDS011;15328;50.860;10.562;2023-02-15T16:10:39;9.30;;;5.90;;
27999;SDS011;15328;50.860;10.562;2023-02-15T16:15:44;10.82;;;6.70;;
27999;SDS011;15328;50.860;10.562;2023-02-15T16:20:51;9.43;;;5.40;;
27999;SDS011;15328;50.860;10.562;2023-02-15T16:31:07;9.90;;;6.05;;
27999;SDS011;15328;50.860;10.562;2023-02-15T16:36:23;8.57;;;5.32;;
27999;SDS011;15328;50.860;10.562;2023-02-15T16:41:26;9.82;;;6.13;;
27999;SDS011;15328;50.860;10.562;2023-02-15T16:46:32;13.85;;;6.53;;
27999;SDS011;15328;50.860;10.562;2023-02-15T16:51:36;12.90;;;7.32;;
27999;SDS011;15328;50.860;10.562;2023-02-15T16:56:36;12.65;;;6.97;;
27999;SDS011;15328;50.860;10.562;2023-02-15T17:01:39;9.98;;;6.22;;
27999;SDS011;15328;50.860;10.562;2023-02-15T17:06:55;12.07;;;5.65;;
27999;SDS011;15328;50.860;10.562;2023-02-15T17:12:03;8.25;;;5.13;;
27999;SDS011;15328;50.860;10.562;2023-02-15T17:17:07;8.85;;;5.28;;
27999;SDS011;15328;50.860;10.562;2023-02-15T17:22:18;9.38;;;4.95;;
27999;SDS011;15328;50.860;10.562;2023-02-15T17:27:22;8.00;;;5.20;;
27999;SDS011;15328;50.860;10.562;2023-02-15T17:32:25;9.38;;;4.90;;
27999;SDS011;15328;50.860;10.562;2023-02-15T17:42:29;11.02;;;6.53;;
27999;SDS011;15328;50.860;10.562;2023-02-15T17:47:29;13.97;;;7.73;;
27999;SDS011;15328;50.860;10.562;2023-02-15T17:52:30;12.50;;;6.13;;
27999;SDS011;15328;50.860;10.562;2023-02-15T17:57:31;10.73;;;6.07;;
27999;SDS011;15328;50.860;10.562;2023-02-15T18:02:33;12.70;;;6.60;;
27999;SDS011;15328;50.860;10.562;2023-02-15T18:07:53;11.43;;;6.70;;
27999;SDS011;15328;50.860;10.562;2023-02-15T18:13:12;30.77;;;18.00;;
27999;SDS011;15328;50.860;10.562;2023-02-15T18:18:12;13.18;;;7.72;;
27999;SDS011;15328;50.860;10.562;2023-02-15T18:23:15;9.57;;;5.28;;
27999;SDS011;15328;50.860;10.562;2023-02-15T18:28:16;9.63;;;5.03;;
27999;SDS011;15328;50.860;10.562;2023-02-15T18:38:37;11.95;;;6.63;;
27999;SDS011;15328;50.860;10.562;2023-02-15T18:43:38;11.02;;;6.95;;
27999;SDS011;15328;50.860;10.562;2023-02-15T18:48:39;13.07;;;7.00;;
27999;SDS011;15328;50.860;10.562;2023-02-15T18:53:39;10.60;;;5.97;;
27999;SDS011;15328;50.860;10.562;2023-02-15T18:58:40;11.40;;;6.43;;
27999;SDS011;15328;50.860;10.562;2023-02-15T19:03:43;10.70;;;5.88;;
27999;SDS011;15328;50.860;10.562;2023-02-15T19:08:45;11.38;;;5.85;;
27999;SDS011;15328;50.860;10.562;2023-02-15T19:13:48;10.20;;;6.43;;
27999;SDS011;15328;50.860;10.562;2023-02-15T19:18:50;12.27;;;7.22;;
27999;SDS011;15328;50.860;10.562;2023-02-15T19:23:54;9.30;;;6.03;;
27999;SDS011;15328;50.860;10.562;2023-02-15T19:29:00;13.55;;;7.40;;
27999;SDS011;15328;50.860;10.562;2023-02-15T19:34:07;14.02;;;8.55;;
27999;SDS011;15328;50.860;10.562;2023-02-15T19:39:24;13.75;;;7.95;;
27999;SDS011;15328;50.860;10.562;2023-02-15T19:44:26;17.33;;;7.82;;
27999;SDS011;15328;50.860;10.562;2023-02-15T19:49:27;14.07;;;8.55;;
27999;SDS011;15328;50.860;10.562;2023-02-15T19:54:29;16.05;;;8.63;;
27999;SDS011;15328;50.860;10.562;2023-02-15T19:59:33;14.70;;;8.38;;
27999;SDS011;15328;50.860;10.562;2023-02-15T20:04:34;14.88;;;8.70;;
27999;SDS011;15328;50.860;10.562;2023-02-15T20:09:34;13.95;;;8.80;;
27999;SDS011;15328;50.860;10.562;2023-02-15T20:14:36;26.98;;;15.75;;
27999;SDS011;15328;50.860;10.562;2023-02-15T20:19:37;15.17;;;9.20;;
27999;SDS011;15328;50.860;10.562;2023-02-15T20:24:39;13.55;;;8.38;;
27999;SDS011;15328;50.860;10.562;2023-02-15T20:29:39;13.68;;;7.43;;
27999;SDS011;15328;50.860;10.562;2023-02-15T20:34:39;12.73;;;7.00;;
27999;SDS011;15328;50.860;10.562;2023-02-15T20:39:40;11.85;;;7.00;;
27999;SDS011;15328;50.860;10.562;2023-02-15T20:44:40;12.97;;;7.33;;
27999;SDS011;15328;50.860;10.562;2023-02-15T20:49:40;13.23;;;7.20;;
27999;SDS011;15328;50.860;10.562;2023-02-15T20:54:41;12.90;;;7.70;;
27999;SDS011;15328;50.860;10.562;2023-02-15T20:59:41;12.13;;;7.17;;
27999;SDS011;15328;50.860;10.562;2023-02-15T21:04:41;13.55;;;7.40;;
27999;SDS011;15328;50.860;10.562;2023-02-15T21:09:42;15.00;;;8.00;;
27999;SDS011;15328;50.860;10.562;2023-02-15T21:14:43;14.63;;;8.00;;
27999;SDS011;15328;50.860;10.562;2023-02-15T21:19:44;17.13;;;9.80;;
27999;SDS011;15328;50.860;10.562;2023-02-15T21:24:48;17.38;;;9.27;;
27999;SDS011;15328;50.860;10.562;2023-02-15T21:29:51;18.02;;;9.98;;
27999;SDS011;15328;50.860;10.562;2023-02-15T21:34:51;18.50;;;10.60;;
27999;SDS011;15328;50.860;10.562;2023-02-15T21:39:52;17.63;;;9.50;;
27999;SDS011;15328;50.860;10.562;2023-02-15T21:44:52;19.40;;;10.80;;
27999;SDS011;15328;50.860;10.562;2023-02-15T21:50:16;18.80;;;10.60;;
27999;SDS011;15328;50.860;10.562;2023-02-15T21:55:36;17.90;;;9.18;;
27999;SDS011;15328;50.860;10.562;2023-02-15T22:00:37;22.05;;;11.57;;
27999;SDS011;15328;50.860;10.562;2023-02-15T22:05:37;19.38;;;11.07;;
27999;SDS011;15328;50.860;10.562;2023-02-15T22:10:37;22.00;;;11.53;;
27999;SDS011;15328;50.860;10.562;2023-02-15T22:15:38;23.95;;;12.70;;
27999;SDS011;15328;50.860;10.562;2023-02-15T22:20:38;23.70;;;12.65;;
27999;SDS011;15328;50.860;10.562;2023-02-15T22:25:39;24.80;;;13.97;;
27999;SDS011;15328;50.860;10.562;2023-02-15T22:30:39;28.77;;;15.35;;
27999;SDS011;15328;50.860;10.562;2023-02-15T22:35:39;33.17;;;16.13;;
27999;SDS011;15328;50.860;10.562;2023-02-15T22:40:40;29.13;;;16.17;;
27999;SDS011;15328;50.860;10.562;2023-02-15T22:45:40;33.13;;;17.05;;
27999;SDS011;15328;50.860;10.562;2023-02-15T22:50:40;31.13;;;16.97;;
27999;SDS011;15328;50.860;10.562;2023-02-15T22:55:41;31.60;;;16.45;;
27999;SDS011;15328;50.860;10.562;2023-02-15T23:00:42;31.55;;;16.60;;
27999;SDS011;15328;50.860;10.562;2023-02-15T23:05:44;29.48;;;17.48;;
27999;SDS011;15328;50.860;10.562;2023-02-15T23:10:46;30.63;;;16.80;;
27999;SDS011;15328;50.860;10.562;2023-02-15T23:15:52;34.38;;;17.30;;
27999;SDS011;15328;50.860;10.562;2023-02-15T23:20:59;27.88;;;15.82;;
27999;SDS011;15328;50.860;10.562;2023-02-15T23:26:02;30.98;;;16.60;;
27999;SDS011;15328;50.860;10.562;2023-02-15T23:31:08;34.25;;;18.45;;
27999;SDS011;15328;50.860;10.562;2023-02-15T23:36:25;31.83;;;16.65;;
27999;SDS011;15328;50.860;10.562;2023-02-15T23:41:35;32.30;;;17.40;;
27999;SDS011;15328;50.860;10.562;2023-02-15T23:46:39;37.90;;;19.27;;
27999;SDS011;15328;50.860;10.562;2023-02-15T23:51:43;32.90;;;18.15;;
27999;SDS011;15328;50.860;10.562;2023-02-15T23:56:49;33.67;;;17.40;;
